Time;durP1;ratioP1;P1;durP2;ratioP2;P2;SDS_P1;SDS_P2;PMS_P1;PMS_P2;Temp;Humidity;BMP_temperature;BMP_pressure;BME280_temperature;BME280_humidity;BME280_pressure;Samples;Min_cycle;Max_cycle;Signal;HPM_P1;HPM_P2
2022/04/11 00:02:23;;;;;;;4.13;3.08;;;;;;;;;;6277040;28;20044;-76
2022/04/11 00:05:25;;;;;;;7.85;3.20;;;;;;;;;;6297076;28;20045;-77
2022/04/11 00:08:27;;;;;;;5.30;3.60;;;;;;;;;;6296589;28;20079;-80
2022/04/11 00:11:29;;;;;;;6.05;3.28;;;;;;;;;;6251137;28;20050;-79
2022/04/11 00:14:30;;;;;;;4.35;3.25;;;;;;;;;;6246540;28;20116;-79
2022/04/11 00:17:33;;;;;;;4.85;3.45;;;;;;;;;;6268837;28;20108;-77
2022/04/11 00:20:34;;;;;;;5.80;3.42;;;;;;;;;;6271182;28;20100;-76
2022/04/11 00:23:36;;;;;;;4.53;3.50;;;;;;;;;;6270260;28;20047;-79
2022/04/11 00:26:38;;;;;;;6.32;4.20;;;;;;;;;;6272585;28;20696;-79
2022/04/11 00:29:39;;;;;;;4.90;4.20;;;;;;;;;;6286607;28;20049;-80
2022/04/11 00:32:44;;;;;;;6.07;4.35;;;;;;;;;;6278897;28;20184;-76
2022/04/11 00:35:46;;;;;;;6.45;3.78;;;;;;;;;;6262721;28;20495;-79
2022/04/11 00:38:48;;;;;;;4.60;3.23;;;;;;;;;;6247795;28;20124;-78
2022/04/11 00:41:50;;;;;;;6.35;3.72;;;;;;;;;;6245100;28;20057;-78
2022/04/11 00:44:51;;;;;;;6.00;3.22;;;;;;;;;;6246536;28;20048;-80
2022/04/11 00:47:53;;;;;;;6.00;3.92;;;;;;;;;;6319194;28;20044;-79
2022/04/11 00:50:59;;;;;;;;;;;;;;;;;;6295594;28;20071;-80
2022/04/11 00:54:03;;;;;;;4.97;3.58;;;;;;;;;;6290098;28;19920;-79
2022/04/11 00:57:05;;;;;;;8.10;3.92;;;;;;;;;;6273462;28;20037;-77
2022/04/11 01:00:09;;;;;;;4.47;3.10;;;;;;;;;;6285738;28;20041;-80
2022/04/11 01:03:10;;;;;;;3.97;3.35;;;;;;;;;;6297560;28;20151;-77
2022/04/11 01:06:12;;;;;;;4.68;3.53;;;;;;;;;;6296583;28;20060;-78
2022/04/11 01:09:14;;;;;;;8.30;3.58;;;;;;;;;;6280656;28;20079;-77
2022/04/11 01:12:16;;;;;;;5.25;3.60;;;;;;;;;;6270905;28;20682;-77
2022/04/11 01:15:18;;;;;;;8.07;3.90;;;;;;;;;;6286864;27;20076;-76
2022/04/11 01:18:19;;;;;;;6.45;4.57;;;;;;;;;;6245794;28;20054;-76
2022/04/11 01:21:21;;;;;;;7.20;4.10;;;;;;;;;;6268428;28;20504;-79
2022/04/11 01:24:22;;;;;;;4.97;3.58;;;;;;;;;;6286671;28;20127;-79
2022/04/11 01:27:29;;;;;;;6.63;4.68;;;;;;;;;;6303967;28;20048;-76
2022/04/11 01:30:32;;;;;;;9.02;5.05;;;;;;;;;;6292875;28;20044;-77
2022/04/11 01:33:34;;;;;;;8.02;4.15;;;;;;;;;;6294196;28;20155;-76
2022/04/11 01:36:39;;;;;;;6.15;4.10;;;;;;;;;;6294509;28;20068;-76
2022/04/11 01:39:43;;;;;;;6.80;3.92;;;;;;;;;;6274914;28;20041;-79
2022/04/11 01:42:45;;;;;;;6.82;4.38;;;;;;;;;;6300227;28;20045;-76
2022/04/11 01:45:47;;;;;;;7.90;4.32;;;;;;;;;;6286439;28;20060;-77
2022/04/11 01:48:51;;;;;;;7.88;4.38;;;;;;;;;;6270990;28;20041;-79
2022/04/11 01:51:53;;;;;;;10.30;5.30;;;;;;;;;;6285493;28;20107;-77
2022/04/11 01:54:55;;;;;;;7.95;4.43;;;;;;;;;;6291932;28;20510;-79
2022/04/11 01:58:16;;;;;;;8.55;4.68;;;;;;;;;;6293713;28;20053;-78
2022/04/11 02:01:18;;;;;;;7.07;4.45;;;;;;;;;;6283171;28;20037;-77
2022/04/11 02:04:20;;;;;;;5.90;3.95;;;;;;;;;;6306472;28;20109;-77
2022/04/11 02:07:22;;;;;;;6.85;4.38;;;;;;;;;;6294325;28;20115;-79
2022/04/11 02:10:24;;;;;;;7.05;4.63;;;;;;;;;;6289523;28;20045;-79
2022/04/11 02:13:26;;;;;;;9.50;4.53;;;;;;;;;;6293552;28;20127;-78
2022/04/11 02:16:28;;;;;;;7.78;4.75;;;;;;;;;;6276694;28;20041;-80
2022/04/11 02:19:30;;;;;;;7.78;4.28;;;;;;;;;;6285832;28;20122;-79
2022/04/11 02:22:52;;;;;;;5.82;4.30;;;;;;;;;;6286101;28;20131;-76
2022/04/11 02:25:54;;;;;;;6.03;3.95;;;;;;;;;;6280612;28;20767;-77
2022/04/11 02:28:55;;;;;;;7.05;4.25;;;;;;;;;;6293293;28;20052;-75
2022/04/11 02:31:57;;;;;;;6.63;4.18;;;;;;;;;;6291196;28;20036;-78
2022/04/11 02:34:59;;;;;;;6.38;4.00;;;;;;;;;;6291425;28;20121;-80
2022/04/11 02:38:01;;;;;;;6.22;4.03;;;;;;;;;;6291192;28;20186;-77
2022/04/11 02:41:04;;;;;;;6.63;3.88;;;;;;;;;;6272414;28;20048;-79
2022/04/11 02:44:16;;;;;;;5.78;4.10;;;;;;;;;;6289517;28;20045;-79
2022/04/11 02:47:19;;;;;;;7.93;4.15;;;;;;;;;;6298216;28;20487;-77
2022/04/11 02:50:21;;;;;;;7.90;4.32;;;;;;;;;;6291414;28;20096;-79
2022/04/11 02:53:39;;;;;;;7.70;4.57;;;;;;;;;;6260587;28;20056;-76
2022/04/11 02:56:41;;;;;;;6.80;4.55;;;;;;;;;;6284551;28;20055;-79
2022/04/11 02:59:43;;;;;;;9.73;5.28;;;;;;;;;;6290263;28;20056;-78
2022/04/11 03:02:45;;;;;;;10.48;5.63;;;;;;;;;;6284741;28;20118;-79
2022/04/11 03:05:47;;;;;;;8.23;4.72;;;;;;;;;;6266521;28;20493;-78
2022/04/11 03:08:49;;;;;;;5.13;4.40;;;;;;;;;;6268039;28;20677;-79
2022/04/11 03:11:59;;;;;;;7.15;4.50;;;;;;;;;;6266623;28;20040;-79
2022/04/11 03:15:03;;;;;;;6.85;4.43;;;;;;;;;;6296661;28;20104;-77
2022/04/11 03:18:05;;;;;;;6.40;4.40;;;;;;;;;;6301393;28;20299;-76
2022/04/11 03:21:10;;;;;;;7.60;4.43;;;;;;;;;;6301275;27;20499;-78
2022/04/11 03:24:13;;;;;;;10.75;5.55;;;;;;;;;;6302292;27;20444;-77
2022/04/11 03:27:16;;;;;;;11.00;5.05;;;;;;;;;;6278014;28;20040;-78
2022/04/11 03:30:18;;;;;;;9.77;5.20;;;;;;;;;;6311604;27;20493;-77
2022/04/11 03:33:20;;;;;;;11.32;5.53;;;;;;;;;;6301392;27;20040;-78
2022/04/11 03:36:23;;;;;;;6.45;4.63;;;;;;;;;;6299885;28;20142;-77
2022/04/11 03:39:28;;;;;;;9.77;5.03;;;;;;;;;;6290519;28;20037;-80
2022/04/11 03:42:30;;;;;;;11.98;5.80;;;;;;;;;;6291135;28;20467;-78
2022/04/11 03:45:32;;;;;;;15.98;6.57;;;;;;;;;;6299245;28;20064;-76
2022/04/11 03:48:35;;;;;;;10.70;5.73;;;;;;;;;;6300448;28;20059;-77
2022/04/11 03:51:38;;;;;;;13.32;5.45;;;;;;;;;;6316665;28;20464;-77
2022/04/11 03:54:40;;;;;;;8.57;5.15;;;;;;;;;;6297657;27;20055;-77
2022/04/11 03:57:42;;;;;;;7.55;5.07;;;;;;;;;;6317193;27;20625;-78
2022/04/11 04:00:43;;;;;;;6.97;4.90;;;;;;;;;;6289500;27;20040;-78
2022/04/11 04:03:53;;;;;;;9.65;5.05;;;;;;;;;;6275429;28;20106;-79
2022/04/11 04:06:54;;;;;;;8.93;5.05;;;;;;;;;;6273582;28;20492;-78
2022/04/11 04:09:57;;;;;;;8.93;5.65;;;;;;;;;;6291038;27;20604;-80
2022/04/11 04:12:59;;;;;;;6.65;4.55;;;;;;;;;;6291243;27;20060;-80
2022/04/11 04:16:02;;;;;;;5.80;4.20;;;;;;;;;;6291438;27;20043;-76
2022/04/11 04:19:05;;;;;;;7.63;5.20;;;;;;;;;;6273681;28;20080;-78
2022/04/11 04:22:07;;;;;;;12.40;6.07;;;;;;;;;;6289837;28;20045;-78
2022/04/11 04:25:10;;;;;;;12.10;6.00;;;;;;;;;;6288360;27;20252;-78
2022/04/11 04:28:17;;;;;;;12.18;5.70;;;;;;;;;;6269865;28;20057;-78
2022/04/11 04:31:25;;;;;;;12.70;6.07;;;;;;;;;;6269333;28;20047;-77
2022/04/11 04:34:29;;;;;;;11.75;5.63;;;;;;;;;;6301968;28;20045;-77
2022/04/11 04:37:31;;;;;;;13.60;7.03;;;;;;;;;;6289541;28;20099;-79
2022/04/11 04:40:35;;;;;;;10.60;6.03;;;;;;;;;;6286545;28;20098;-77
2022/04/11 04:43:37;;;;;;;10.77;6.20;;;;;;;;;;6287603;28;20041;-79
2022/04/11 04:46:39;;;;;;;10.98;5.20;;;;;;;;;;6284721;28;20040;-78
2022/04/11 04:49:48;;;;;;;10.80;5.10;;;;;;;;;;6290732;28;20045;-76
2022/04/11 04:52:51;;;;;;;6.65;4.82;;;;;;;;;;6287872;28;20047;-76
2022/04/11 04:55:53;;;;;;;13.98;5.82;;;;;;;;;;6281851;28;20040;-76
2022/04/11 04:58:55;;;;;;;9.30;5.97;;;;;;;;;;6282345;28;20049;-78
2022/04/11 05:01:57;;;;;;;9.48;4.93;;;;;;;;;;6296023;28;20215;-78
2022/04/11 05:05:04;;;;;;;6.95;5.22;;;;;;;;;;6264593;28;20048;-76
2022/04/11 05:08:06;;;;;;;8.93;5.07;;;;;;;;;;6263870;28;20041;-77
2022/04/11 05:11:13;;;;;;;8.30;5.50;;;;;;;;;;6262411;28;20045;-77
2022/04/11 05:14:15;;;;;;;8.10;6.00;;;;;;;;;;6263856;28;20048;-77
2022/04/11 05:17:18;;;;;;;7.10;4.88;;;;;;;;;;6299535;28;20052;-77
2022/04/11 05:20:19;;;;;;;9.35;5.30;;;;;;;;;;6267714;28;20041;-79
2022/04/11 05:23:21;;;;;;;7.85;5.53;;;;;;;;;;6264395;28;20052;-78
2022/04/11 05:26:23;;;;;;;8.32;5.57;;;;;;;;;;6266055;28;20060;-79
2022/04/11 05:29:26;;;;;;;8.85;5.60;;;;;;;;;;6242111;28;20044;-77
2022/04/11 05:32:28;;;;;;;7.40;5.60;;;;;;;;;;6258248;28;20041;-78
2022/04/11 05:35:30;;;;;;;7.93;5.18;;;;;;;;;;6266140;28;20049;-78
2022/04/11 05:38:36;;;;;;;8.35;6.15;;;;;;;;;;6250330;28;20053;-77
2022/04/11 05:41:39;;;;;;;10.38;6.30;;;;;;;;;;6256721;28;20107;-76
2022/04/11 05:44:41;;;;;;;10.88;7.03;;;;;;;;;;6256269;28;20064;-76
2022/04/11 05:47:43;;;;;;;9.98;7.40;;;;;;;;;;6275661;28;20501;-78
2022/04/11 05:50:48;;;;;;;7.53;6.57;;;;;;;;;;6281988;28;20122;-77
2022/04/11 05:53:49;;;;;;;9.95;6.60;;;;;;;;;;6287731;28;20559;-78
2022/04/11 05:56:52;;;;;;;10.63;6.53;;;;;;;;;;6289406;28;20078;-76
2022/04/11 05:59:54;;;;;;;12.80;6.47;;;;;;;;;;6284591;28;20444;-77
2022/04/11 06:02:56;;;;;;;13.15;7.38;;;;;;;;;;6281219;28;20329;-77
2022/04/11 06:05:58;;;;;;;12.15;7.45;;;;;;;;;;6280856;28;20520;-78
2022/04/11 06:09:03;;;;;;;13.18;7.47;;;;;;;;;;6298045;28;20045;-78
2022/04/11 06:12:07;;;;;;;;;;;;;;;;;;6297665;28;20570;-76
2022/04/11 06:15:11;;;;;;;11.48;6.43;;;;;;;;;;6280419;28;19974;-75
2022/04/11 06:18:14;;;;;;;9.95;6.85;;;;;;;;;;6297398;28;20716;-77
2022/04/11 06:21:16;;;;;;;11.45;7.53;;;;;;;;;;6279590;28;20449;-78
2022/04/11 06:24:18;;;;;;;11.30;7.38;;;;;;;;;;6265127;28;20123;-77
2022/04/11 06:27:20;;;;;;;10.32;6.82;;;;;;;;;;6279427;28;20049;-78
2022/04/11 06:30:22;;;;;;;13.02;8.85;;;;;;;;;;6273942;28;20041;-77
2022/04/11 06:33:24;;;;;;;16.42;8.57;;;;;;;;;;6247621;28;20048;-79
2022/04/11 06:36:26;;;;;;;16.67;10.07;;;;;;;;;;6266871;28;20044;-77
2022/04/11 06:39:29;;;;;;;15.18;9.02;;;;;;;;;;6255492;28;20044;-80
2022/04/11 06:42:32;;;;;;;;;;;;;;;;;;6270938;28;20168;-76
2022/04/11 06:45:37;;;;;;;12.18;6.55;;;;;;;;;;6247228;28;19927;-77
2022/04/11 06:48:42;;;;;;;10.32;6.57;;;;;;;;;;6260521;28;20124;-78
2022/04/11 06:51:44;;;;;;;13.70;8.10;;;;;;;;;;6260796;28;20056;-78
2022/04/11 06:54:46;;;;;;;10.18;5.90;;;;;;;;;;6252317;28;20041;-76
2022/04/11 06:57:47;;;;;;;11.38;6.22;;;;;;;;;;6236026;28;20041;-79
2022/04/11 07:00:49;;;;;;;11.95;6.28;;;;;;;;;;6239326;28;20114;-79
2022/04/11 07:03:51;;;;;;;8.70;6.20;;;;;;;;;;6238798;28;20111;-78
2022/04/11 07:06:53;;;;;;;9.25;6.20;;;;;;;;;;6239892;28;20071;-78
2022/04/11 07:09:55;;;;;;;11.85;6.63;;;;;;;;;;6238741;28;20045;-77
2022/04/11 07:12:57;;;;;;;11.23;6.35;;;;;;;;;;6239091;28;20045;-78
2022/04/11 07:16:00;;;;;;;11.32;6.20;;;;;;;;;;6239726;28;20076;-80
2022/04/11 07:19:02;;;;;;;11.05;6.78;;;;;;;;;;6237274;28;20069;-79
2022/04/11 07:22:04;;;;;;;13.73;7.20;;;;;;;;;;6239252;28;20180;-79
2022/04/11 07:25:06;;;;;;;18.42;8.73;;;;;;;;;;6238112;28;20495;-80
2022/04/11 07:28:08;;;;;;;13.85;6.50;;;;;;;;;;6269614;28;20073;-78
2022/04/11 07:31:09;;;;;;;11.60;7.47;;;;;;;;;;6238929;28;20042;-81
2022/04/11 07:34:11;;;;;;;11.10;6.78;;;;;;;;;;6252824;28;20056;-80
2022/04/11 07:37:13;;;;;;;9.88;6.35;;;;;;;;;;6265427;28;20039;-78
2022/04/11 07:40:15;;;;;;;7.93;5.68;;;;;;;;;;6238773;28;20457;-81
2022/04/11 07:43:17;;;;;;;9.02;5.90;;;;;;;;;;6239755;28;20037;-79
2022/04/11 07:46:18;;;;;;;7.20;5.07;;;;;;;;;;6246143;28;20644;-79
2022/04/11 07:49:20;;;;;;;7.85;4.88;;;;;;;;;;6264200;28;20049;-76
2022/04/11 07:52:22;;;;;;;6.15;4.60;;;;;;;;;;6261976;28;20106;-76
2022/04/11 07:55:24;;;;;;;8.18;4.88;;;;;;;;;;6250777;28;20041;-78
2022/04/11 07:58:26;;;;;;;15.15;8.10;;;;;;;;;;6239081;28;20128;-79
2022/04/11 08:01:28;;;;;;;18.20;8.68;;;;;;;;;;6265401;28;20048;-77
2022/04/11 08:04:30;;;;;;;12.37;6.33;;;;;;;;;;6283275;28;20051;-77
2022/04/11 08:07:35;;;;;;;10.73;5.15;;;;;;;;;;6264013;28;20045;-77
2022/04/11 08:10:37;;;;;;;6.88;4.15;;;;;;;;;;6265314;28;20045;-81
2022/04/11 08:13:39;;;;;;;5.57;4.40;;;;;;;;;;6265092;28;20122;-78
2022/04/11 08:16:41;;;;;;;4.63;3.60;;;;;;;;;;6264804;28;20057;-78
2022/04/11 08:19:42;;;;;;;5.25;3.28;;;;;;;;;;6264899;28;20076;-76
2022/04/11 08:22:44;;;;;;;3.75;2.88;;;;;;;;;;6264863;28;20958;-78
2022/04/11 08:25:49;;;;;;;6.80;3.15;;;;;;;;;;6265339;28;20530;-80
2022/04/11 08:28:51;;;;;;;4.03;3.10;;;;;;;;;;6267323;28;20037;-77
2022/04/11 08:31:53;;;;;;;5.57;2.92;;;;;;;;;;6267705;28;20563;-79
2022/04/11 08:34:55;;;;;;;6.00;3.33;;;;;;;;;;6286357;28;20127;-79
2022/04/11 08:37:56;;;;;;;4.18;3.10;;;;;;;;;;6293378;28;20128;-80
2022/04/11 08:41:00;;;;;;;5.50;2.80;;;;;;;;;;6288849;28;20140;-77
2022/04/11 08:44:06;;;;;;;3.88;2.70;;;;;;;;;;6288792;28;20028;-77
2022/04/11 08:47:08;;;;;;;3.63;2.67;;;;;;;;;;6289266;28;20102;-76
2022/04/11 08:50:11;;;;;;;7.15;3.08;;;;;;;;;;6304567;27;20071;-80
2022/04/11 08:53:13;;;;;;;4.93;2.92;;;;;;;;;;6285576;28;20812;-79
2022/04/11 08:56:15;;;;;;;4.25;2.85;;;;;;;;;;6264292;28;20124;-78
2022/04/11 08:59:17;;;;;;;6.50;3.42;;;;;;;;;;6279982;28;20083;-76
2022/04/11 09:02:19;;;;;;;3.50;2.60;;;;;;;;;;6288900;28;20125;-79
2022/04/11 09:05:24;;;;;;;3.55;2.88;;;;;;;;;;6291695;28;20044;-78
2022/04/11 09:08:38;;;;;;;5.43;2.70;;;;;;;;;;6292441;28;20068;-76
2022/04/11 09:11:40;;;;;;;5.90;2.58;;;;;;;;;;6298926;28;20121;-77
2022/04/11 09:14:42;;;;;;;5.35;2.63;;;;;;;;;;6283533;28;20183;-76
2022/04/11 09:17:45;;;;;;;4.57;2.88;;;;;;;;;;6292054;28;20131;-78
2022/04/11 09:20:50;;;;;;;5.93;3.13;;;;;;;;;;6291556;28;20079;-79
2022/04/11 09:24:12;;;;;;;4.90;3.00;;;;;;;;;;6291355;28;20056;-80
2022/04/11 09:27:23;;;;;;;3.40;2.55;;;;;;;;;;6265748;28;20052;-78
2022/04/11 09:30:27;;;;;;;7.60;3.17;;;;;;;;;;6274983;28;20125;-77
2022/04/11 09:33:37;;;;;;;4.28;2.88;;;;;;;;;;6292533;28;20036;-78
2022/04/11 09:36:46;;;;;;;9.40;2.63;;;;;;;;;;6292325;28;20110;-76
2022/04/11 09:40:01;;;;;;;5.00;2.60;;;;;;;;;;6286612;28;20401;-79
2022/04/11 09:43:03;;;;;;;3.63;3.03;;;;;;;;;;6288010;28;20577;-80
2022/04/11 09:46:04;;;;;;;3.90;2.63;;;;;;;;;;6270330;28;20151;-79
2022/04/11 09:49:07;;;;;;;5.88;2.88;;;;;;;;;;6262958;28;20041;-76
2022/04/11 09:52:14;;;;;;;3.38;2.60;;;;;;;;;;6263475;28;20124;-78
2022/04/11 09:55:16;;;;;;;3.45;2.50;;;;;;;;;;6264388;28;20049;-80
2022/04/11 09:58:19;;;;;;;4.57;2.70;;;;;;;;;;6265660;28;20049;-79
2022/04/11 10:01:23;;;;;;;3.95;2.75;;;;;;;;;;6265048;28;20132;-76
2022/04/11 10:04:26;;;;;;;3.90;2.72;;;;;;;;;;6268262;28;20047;-78
2022/04/11 10:07:28;;;;;;;4.33;2.87;;;;;;;;;;6269831;28;20052;-78
2022/04/11 10:10:31;;;;;;;3.70;2.35;;;;;;;;;;6273999;28;20056;-76
2022/04/11 10:13:35;;;;;;;5.53;2.90;;;;;;;;;;6279871;28;20509;-78
2022/04/11 10:16:42;;;;;;;3.72;2.60;;;;;;;;;;6280882;28;20141;-79
2022/04/11 10:19:47;;;;;;;5.15;3.00;;;;;;;;;;6287088;28;20089;-76
2022/04/11 10:22:55;;;;;;;5.20;3.25;;;;;;;;;;6288580;28;20064;-76
2022/04/11 10:25:59;;;;;;;4.95;3.00;;;;;;;;;;6251667;28;20053;-78
2022/04/11 10:29:01;;;;;;;4.22;2.80;;;;;;;;;;6238315;28;20113;-79
2022/04/11 10:32:12;;;;;;;4.60;2.80;;;;;;;;;;6235537;28;20124;-77
2022/04/11 10:35:31;;;;;;;3.17;2.72;;;;;;;;;;6259736;28;20053;-77
2022/04/11 10:38:33;;;;;;;4.30;3.10;;;;;;;;;;6252552;28;20113;-77
2022/04/11 10:41:56;;;;;;;4.10;2.67;;;;;;;;;;6277710;28;20128;-77
2022/04/11 10:44:59;;;;;;;4.88;3.03;;;;;;;;;;6263432;28;20044;-79
2022/04/11 10:48:04;;;;;;;4.57;3.08;;;;;;;;;;6286283;28;20134;-79
2022/04/11 10:51:16;;;;;;;5.45;3.05;;;;;;;;;;6288613;28;20045;-78
2022/04/11 10:54:19;;;;;;;8.82;3.33;;;;;;;;;;6285411;28;22065;-78
2022/04/11 10:57:46;;;;;;;5.63;3.30;;;;;;;;;;6263590;28;20041;-78
2022/04/11 11:00:48;;;;;;;4.53;2.97;;;;;;;;;;6275496;28;20179;-76
2022/04/11 11:04:00;;;;;;;2.97;2.60;;;;;;;;;;6276092;28;20063;-79
2022/04/11 11:07:24;;;;;;;3.55;2.97;;;;;;;;;;6275210;27;20047;-79
2022/04/11 11:10:27;;;;;;;5.43;3.28;;;;;;;;;;6267293;28;20120;-78
2022/04/11 11:13:38;;;;;;;5.68;3.30;;;;;;;;;;6280507;28;20131;-79
2022/04/11 11:16:58;;;;;;;4.13;2.85;;;;;;;;;;6270029;28;20603;-77
2022/04/11 11:20:03;;;;;;;4.20;3.10;;;;;;;;;;6273098;28;20134;-78
2022/04/11 11:23:19;;;;;;;4.00;3.30;;;;;;;;;;6255389;28;20697;-77
2022/04/11 11:26:22;;;;;;;3.92;3.45;;;;;;;;;;6261782;28;20129;-77
2022/04/11 11:29:25;;;;;;;6.28;3.80;;;;;;;;;;6298261;28;20107;-77
2022/04/11 11:32:30;;;;;;;3.47;2.72;;;;;;;;;;6261268;28;20501;-78
2022/04/11 11:35:32;;;;;;;4.70;3.10;;;;;;;;;;6288957;28;20044;-78
2022/04/11 11:38:34;;;;;;;5.25;3.40;;;;;;;;;;6294505;28;20127;-77
2022/04/11 11:41:37;;;;;;;4.20;3.00;;;;;;;;;;6272694;28;20128;-78
2022/04/11 11:44:46;;;;;;;3.40;2.80;;;;;;;;;;6271946;28;20071;-78
2022/04/11 11:47:51;;;;;;;3.83;2.80;;;;;;;;;;6292083;28;20040;-79
2022/04/11 11:50:58;;;;;;;4.35;3.13;;;;;;;;;;6293698;28;20492;-77
2022/04/11 11:53:59;;;;;;;4.28;3.13;;;;;;;;;;6282076;28;20528;-78
2022/04/11 11:57:20;;;;;;;5.00;3.30;;;;;;;;;;6268866;28;20041;-76
2022/04/11 12:00:21;;;;;;;6.10;3.25;;;;;;;;;;6266964;28;20091;-78
2022/04/11 12:06:43;;;;;;;5.35;3.10;;;;;;;;;;6268418;28;20041;-78
2022/04/11 12:09:45;;;;;;;4.68;3.28;;;;;;;;;;6268781;28;20048;-79
2022/04/11 12:12:47;;;;;;;4.05;2.90;;;;;;;;;;6269189;28;20071;-78
2022/04/11 12:15:49;;;;;;;5.47;3.22;;;;;;;;;;6268121;28;20411;-78
2022/04/11 12:18:56;;;;;;;4.93;3.13;;;;;;;;;;6283299;28;20414;-78
2022/04/11 12:22:12;;;;;;;4.30;3.00;;;;;;;;;;6265963;28;20128;-77
2022/04/11 12:25:27;;;;;;;4.50;3.20;;;;;;;;;;6267784;28;20276;-78
2022/04/11 12:28:34;;;;;;;4.22;3.35;;;;;;;;;;6267378;28;20126;-77
2022/04/11 12:31:40;;;;;;;4.05;3.58;;;;;;;;;;6247780;28;20164;-77
2022/04/11 12:34:43;;;;;;;5.38;3.40;;;;;;;;;;6259414;28;20429;-77
2022/04/11 12:37:49;;;;;;;4.25;3.13;;;;;;;;;;6266871;28;20102;-78
2022/04/11 12:40:53;;;;;;;5.15;3.35;;;;;;;;;;6251493;28;20083;-78
2022/04/11 12:44:14;;;;;;;6.57;3.40;;;;;;;;;;6244022;28;20045;-78
2022/04/11 12:47:15;;;;;;;4.80;3.40;;;;;;;;;;6257103;28;20056;-78
2022/04/11 12:50:21;;;;;;;4.45;3.25;;;;;;;;;;6267479;28;20047;-78
2022/04/11 12:53:31;;;;;;;4.55;3.08;;;;;;;;;;6276772;28;20076;-76
2022/04/11 12:56:45;;;;;;;5.55;3.30;;;;;;;;;;6243219;28;20097;-77
2022/04/11 12:59:47;;;;;;;4.53;2.80;;;;;;;;;;6241274;28;20049;-76
2022/04/11 13:02:48;;;;;;;4.47;3.33;;;;;;;;;;6242493;28;20069;-77
2022/04/11 13:05:50;;;;;;;5.30;3.17;;;;;;;;;;6240890;28;20164;-78
2022/04/11 13:08:52;;;;;;;4.93;3.25;;;;;;;;;;6242204;28;20052;-78
2022/04/11 13:11:54;;;;;;;4.80;3.10;;;;;;;;;;6243341;28;20065;-77
2022/04/11 13:15:07;;;;;;;3.22;2.92;;;;;;;;;;6242065;28;20048;-78
2022/04/11 13:18:24;;;;;;;4.38;3.33;;;;;;;;;;6242428;28;20463;-78
2022/04/11 13:21:26;;;;;;;6.18;3.10;;;;;;;;;;6242437;28;20090;-77
2022/04/11 13:24:27;;;;;;;4.63;3.10;;;;;;;;;;6241552;28;20045;-77
2022/04/11 13:27:29;;;;;;;3.88;3.20;;;;;;;;;;6242119;28;20107;-77
2022/04/11 13:30:31;;;;;;;3.33;2.70;;;;;;;;;;6241452;28;20101;-78
2022/04/11 13:33:33;;;;;;;4.00;2.75;;;;;;;;;;6248894;28;20047;-77
2022/04/11 13:36:35;;;;;;;5.35;3.80;;;;;;;;;;6267565;28;20088;-78
2022/04/11 13:39:37;;;;;;;8.98;3.75;;;;;;;;;;6261701;28;20600;-78
2022/04/11 13:42:38;;;;;;;3.60;2.88;;;;;;;;;;6256656;28;20103;-78
2022/04/11 13:46:01;;;;;;;4.75;2.53;;;;;;;;;;6245113;28;20057;-78
2022/04/11 13:49:03;;;;;;;3.25;2.95;;;;;;;;;;6267148;28;20040;-78
2022/04/11 13:52:07;;;;;;;3.95;2.80;;;;;;;;;;6266197;28;20075;-77
2022/04/11 13:55:08;;;;;;;3.05;2.75;;;;;;;;;;6250909;28;20065;-78
2022/04/11 13:58:12;;;;;;;3.70;2.58;;;;;;;;;;6241272;28;20196;-77
2022/04/11 14:01:15;;;;;;;2.63;2.42;;;;;;;;;;6241055;28;20140;-77
2022/04/11 14:04:17;;;;;;;;;;;;;;;;;;6239537;28;20060;-78
2022/04/11 14:07:18;;;;;;;4.13;2.60;;;;;;;;;;6243373;28;19924;-78
2022/04/11 14:10:20;;;;;;;4.13;2.88;;;;;;;;;;6283547;28;20105;-77
2022/04/11 14:13:22;;;;;;;3.92;2.60;;;;;;;;;;6287726;28;20064;-78
2022/04/11 14:16:24;;;;;;;3.13;2.60;;;;;;;;;;6264645;28;20497;-78
2022/04/11 14:19:26;;;;;;;2.53;2.13;;;;;;;;;;6262486;28;20049;-77
2022/04/11 14:22:35;;;;;;;4.30;2.50;;;;;;;;;;6262637;28;20049;-78
2022/04/11 14:25:37;;;;;;;3.85;2.78;;;;;;;;;;6278857;28;20079;-78
2022/04/11 14:28:41;;;;;;;3.83;2.35;;;;;;;;;;6282834;28;20750;-78
2022/04/11 14:31:43;;;;;;;2.80;2.20;;;;;;;;;;6270380;28;20048;-79
2022/04/11 14:34:44;;;;;;;4.40;2.78;;;;;;;;;;6265710;28;20048;-78
2022/04/11 14:37:49;;;;;;;4.95;2.78;;;;;;;;;;6293066;27;20708;-78
2022/04/11 14:40:50;;;;;;;2.97;2.53;;;;;;;;;;6276743;28;20044;-77
2022/04/11 14:43:52;;;;;;;2.78;2.50;;;;;;;;;;6314450;28;20051;-78
2022/04/11 14:46:54;;;;;;;3.63;2.33;;;;;;;;;;6280930;28;20037;-79
2022/04/11 14:49:55;;;;;;;4.10;2.47;;;;;;;;;;6289522;28;20174;-80
2022/04/11 14:52:58;;;;;;;5.03;2.50;;;;;;;;;;6293926;28;20049;-76
2022/04/11 14:56:17;;;;;;;5.82;3.10;;;;;;;;;;6282390;28;20271;-78
2022/04/11 14:59:19;;;;;;;4.25;3.13;;;;;;;;;;6270042;28;20051;-78
2022/04/11 15:02:21;;;;;;;5.85;2.90;;;;;;;;;;6282566;28;20094;-81
2022/04/11 15:05:24;;;;;;;4.10;2.93;;;;;;;;;;6295932;28;20054;-78
2022/04/11 15:08:26;;;;;;;5.75;3.10;;;;;;;;;;6289756;28;20067;-79
2022/04/11 15:11:27;;;;;;;3.17;2.63;;;;;;;;;;6261814;28;20132;-77
2022/04/11 15:14:29;;;;;;;4.78;2.53;;;;;;;;;;6266818;28;20087;-79
2022/04/11 15:17:30;;;;;;;4.35;2.90;;;;;;;;;;6262480;28;20573;-76
2022/04/11 15:20:32;;;;;;;3.78;2.60;;;;;;;;;;6257738;28;20049;-78
2022/04/11 15:23:34;;;;;;;4.43;3.30;;;;;;;;;;6257156;28;20047;-78
2022/04/11 15:26:37;;;;;;;4.50;3.03;;;;;;;;;;6258796;28;20821;-78
2022/04/11 15:29:39;;;;;;;3.90;2.72;;;;;;;;;;6263514;28;20043;-77
2022/04/11 15:32:41;;;;;;;4.30;2.97;;;;;;;;;;6282102;28;20519;-76
2022/04/11 15:35:42;;;;;;;3.90;2.70;;;;;;;;;;6264858;28;20540;-77
2022/04/11 15:38:44;;;;;;;3.40;2.80;;;;;;;;;;6231599;28;20119;-77
2022/04/11 15:41:46;;;;;;;5.60;3.30;;;;;;;;;;6269382;28;20216;-78
2022/04/11 15:44:48;;;;;;;4.03;3.10;;;;;;;;;;6268120;28;21059;-78
2022/04/11 15:47:50;;;;;;;6.15;3.70;;;;;;;;;;6273371;28;20137;-78
2022/04/11 15:50:52;;;;;;;4.13;2.40;;;;;;;;;;6278289;28;20044;-78
2022/04/11 15:54:05;;;;;;;3.30;2.40;;;;;;;;;;6293345;28;20052;-77
2022/04/11 15:57:06;;;;;;;3.53;2.70;;;;;;;;;;6292903;28;20049;-79
2022/04/11 16:00:09;;;;;;;3.50;2.42;;;;;;;;;;6266638;28;20072;-79
2022/04/11 16:03:13;;;;;;;4.43;2.70;;;;;;;;;;6284015;28;20075;-78
2022/04/11 16:06:15;;;;;;;7.38;4.25;;;;;;;;;;6287826;28;20128;-78
2022/04/11 16:09:17;;;;;;;5.50;3.30;;;;;;;;;;6285665;28;20124;-78
2022/04/11 16:12:18;;;;;;;4.32;3.13;;;;;;;;;;6265009;28;20877;-78
2022/04/11 16:15:26;;;;;;;5.25;3.13;;;;;;;;;;6265442;28;20175;-79
2022/04/11 16:18:27;;;;;;;3.10;2.42;;;;;;;;;;6298313;28;20043;-78
2022/04/11 16:21:29;;;;;;;6.22;2.42;;;;;;;;;;6294564;28;20037;-77
2022/04/11 16:24:31;;;;;;;3.53;2.38;;;;;;;;;;6293125;28;20055;-78
2022/04/11 16:27:32;;;;;;;2.60;2.40;;;;;;;;;;6287726;28;20044;-78
2022/04/11 16:30:34;;;;;;;3.22;2.15;;;;;;;;;;6280947;28;20067;-77
2022/04/11 16:33:36;;;;;;;4.13;2.30;;;;;;;;;;6276524;28;20056;-78
2022/04/11 16:36:39;;;;;;;3.47;2.33;;;;;;;;;;6293668;28;20309;-79
2022/04/11 16:39:40;;;;;;;;;;;;;;;;;;6302978;28;20085;-77
2022/04/11 16:42:42;;;;;;;5.95;2.40;;;;;;;;;;6267498;28;19920;-79
2022/04/11 16:45:44;;;;;;;4.80;2.58;;;;;;;;;;6269340;28;20064;-75
2022/04/11 16:48:46;;;;;;;3.83;2.40;;;;;;;;;;6291885;28;20048;-79
2022/04/11 16:51:47;;;;;;;3.60;2.10;;;;;;;;;;6291102;28;20068;-78
2022/04/11 16:54:49;;;;;;;3.83;2.33;;;;;;;;;;6278863;28;20068;-77
2022/04/11 16:57:51;;;;;;;4.03;2.80;;;;;;;;;;6266607;28;20056;-79
2022/04/11 17:00:55;;;;;;;6.47;2.50;;;;;;;;;;6266664;28;20092;-77
2022/04/11 17:03:58;;;;;;;5.03;2.50;;;;;;;;;;6307839;28;20040;-77
2022/04/11 17:07:00;;;;;;;4.72;2.65;;;;;;;;;;6293336;28;20053;-79
2022/04/11 17:10:02;;;;;;;3.15;2.58;;;;;;;;;;6280851;28;20171;-79
2022/04/11 17:13:05;;;;;;;4.18;2.78;;;;;;;;;;6305510;28;20119;-78
2022/04/11 17:19:29;;;;;;;3.00;2.65;;;;;;;;;;6281457;28;20057;-76
2022/04/11 17:22:30;;;;;;;4.10;3.10;;;;;;;;;;6264916;28;20057;-78
2022/04/11 17:25:35;;;;;;;3.35;2.50;;;;;;;;;;6266443;28;20416;-79
2022/04/11 17:28:39;;;;;;;5.40;2.67;;;;;;;;;;6266592;28;20060;-80
2022/04/11 17:31:41;;;;;;;3.72;2.47;;;;;;;;;;6276668;28;20053;-79
2022/04/11 17:34:43;;;;;;;5.93;2.90;;;;;;;;;;6289746;28;20072;-77
2022/04/11 17:37:44;;;;;;;3.53;2.40;;;;;;;;;;6291688;28;20102;-77
2022/04/11 17:40:51;;;;;;;3.50;2.38;;;;;;;;;;6290042;28;20074;-79
2022/04/11 17:43:53;;;;;;;4.82;2.60;;;;;;;;;;6272591;28;20154;-78
2022/04/11 17:46:55;;;;;;;4.85;2.65;;;;;;;;;;6281261;28;20036;-80
2022/04/11 17:49:56;;;;;;;3.45;2.20;;;;;;;;;;6289839;28;20108;-80
2022/04/11 17:52:58;;;;;;;4.60;2.42;;;;;;;;;;6282681;28;20048;-77
2022/04/11 17:56:01;;;;;;;4.18;2.08;;;;;;;;;;6268348;28;20056;-78
2022/04/11 17:59:02;;;;;;;3.83;2.45;;;;;;;;;;6268271;28;20064;-78
2022/04/11 18:02:04;;;;;;;2.90;2.08;;;;;;;;;;6278532;28;20093;-76
2022/04/11 18:05:06;;;;;;;4.38;2.35;;;;;;;;;;6288813;28;20044;-78
2022/04/11 18:08:08;;;;;;;3.78;2.22;;;;;;;;;;6283404;28;20106;-78
2022/04/11 18:11:10;;;;;;;4.20;2.00;;;;;;;;;;6284155;28;20195;-78
2022/04/11 18:14:12;;;;;;;4.23;2.40;;;;;;;;;;6258660;28;20045;-76
2022/04/11 18:17:14;;;;;;;5.00;3.92;;;;;;;;;;6255406;28;20106;-78
2022/04/11 18:20:17;;;;;;;5.60;4.38;;;;;;;;;;6255381;28;20178;-75
2022/04/11 18:23:19;;;;;;;6.78;5.35;;;;;;;;;;6255967;28;20116;-77
2022/04/11 18:26:20;;;;;;;6.32;5.10;;;;;;;;;;6254934;28;20041;-77
2022/04/11 18:32:42;;;;;;;7.75;4.40;;;;;;;;;;6258038;28;20471;-78